createdAt,value
2019-06-07T00:01:16.473Z,2.00
2019-06-07T00:03:45.775Z,2.10
2019-06-07T00:06:21.266Z,2.07
2019-06-07T00:08:46.113Z,2.53
2019-06-07T00:11:18.636Z,2.00
2019-06-07T00:13:46.388Z,2.10
2019-06-07T00:16:20.834Z,1.83
2019-06-07T00:18:46.658Z,1.97
2019-06-07T00:21:17.867Z,2.00
2019-06-07T00:23:46.949Z,1.90
2019-06-07T00:26:18.206Z,1.90
2019-06-07T00:28:47.207Z,1.90
2019-06-07T00:31:21.932Z,1.90
2019-06-07T00:33:47.486Z,2.00
2019-06-07T00:36:18.201Z,1.73
2019-06-07T00:38:47.981Z,2.17
2019-06-07T00:41:20.233Z,2.50
2019-06-07T00:43:48.226Z,1.97
2019-06-07T00:46:18.763Z,1.80
2019-06-07T00:48:48.507Z,1.57
2019-06-07T00:51:19.584Z,1.53
2019-06-07T00:53:48.773Z,1.50
2019-06-07T00:56:20.322Z,1.80
2019-06-07T00:59:09.837Z,2.97
2019-06-07T01:01:22.269Z,1.60
2019-06-07T01:03:50.986Z,1.97
2019-06-07T01:06:22.919Z,1.50
2019-06-07T01:08:51.338Z,1.37
2019-06-07T01:11:23.440Z,1.63
2019-06-07T01:13:51.599Z,1.20
2019-06-07T01:16:23.422Z,1.10
2019-06-07T01:18:51.928Z,1.23
2019-06-07T01:21:24.894Z,1.30
2019-06-07T01:24:10.666Z,1.10
2019-06-07T01:26:26.666Z,1.20
2019-06-07T01:28:54.224Z,1.40
2019-06-07T01:31:27.614Z,1.27
2019-06-07T01:33:54.459Z,1.23
2019-06-07T01:36:25.225Z,1.27
2019-06-07T01:38:54.764Z,1.40
2019-06-07T01:41:25.965Z,0.93
2019-06-07T01:43:55.053Z,1.10
2019-06-07T01:46:26.673Z,1.10
2019-06-07T01:48:55.618Z,1.23
2019-06-07T01:51:27.019Z,1.43
2019-06-07T01:54:41.226Z,1.10
2019-06-07T01:56:29.649Z,1.50
2019-06-07T01:58:57.928Z,1.10
2019-06-07T02:01:34.642Z,1.10
2019-06-07T02:03:58.176Z,1.53
2019-06-07T02:06:31.695Z,1.30
2019-06-07T02:08:58.470Z,1.13
2019-06-07T02:11:29.328Z,1.30
2019-06-07T02:13:59.161Z,1.70
2019-06-07T02:16:31.975Z,1.40
2019-06-07T02:19:01.856Z,1.53
2019-06-07T02:21:31.621Z,1.60
2019-06-07T02:24:01.315Z,1.13
2019-06-07T02:26:32.585Z,1.60
2019-06-07T02:29:01.601Z,1.63
2019-06-07T02:31:37.019Z,1.80
2019-06-07T02:34:01.865Z,1.57
2019-06-07T02:36:39.095Z,1.60
2019-06-07T02:39:02.198Z,1.63
2019-06-07T02:41:36.740Z,1.77
2019-06-07T02:44:02.817Z,1.20
2019-06-07T02:46:39.941Z,1.80
2019-06-07T02:49:03.258Z,1.37
2019-06-07T02:51:40.188Z,1.63
2019-06-07T02:54:03.477Z,1.80
2019-06-07T02:56:44.500Z,1.63
2019-06-07T02:59:04.259Z,1.70
2019-06-07T03:01:41.169Z,2.00
2019-06-07T03:04:05.149Z,1.57
2019-06-07T03:06:39.623Z,1.80
2019-06-07T03:09:08.524Z,1.93
2019-06-07T03:11:41.033Z,2.00
2019-06-07T03:14:12.483Z,1.97
2019-06-07T03:16:54.407Z,2.47
2019-06-07T03:19:37.293Z,2.40
2019-06-07T03:22:05.022Z,2.87
2019-06-07T03:24:39.148Z,2.57
2019-06-07T03:29:41.172Z,2.77
2019-06-07T03:32:09.252Z,2.67
2019-06-07T03:34:43.179Z,3.00
2019-06-07T03:37:09.508Z,3.20
2019-06-07T03:39:41.009Z,2.97
2019-06-07T03:42:10.331Z,3.57
2019-06-07T03:44:41.584Z,3.07
2019-06-07T03:47:10.630Z,3.30
2019-06-07T03:49:42.585Z,3.70
2019-06-07T03:52:10.930Z,3.40
2019-06-07T03:54:40.163Z,3.60
2019-06-07T03:57:09.409Z,3.73
2019-06-07T03:59:41.303Z,3.47
2019-06-07T04:02:09.690Z,3.60
2019-06-07T04:04:39.899Z,3.90
2019-06-07T04:07:09.289Z,3.90
2019-06-07T04:09:42.032Z,3.90
2019-06-07T04:12:09.525Z,4.07
2019-06-07T04:14:42.548Z,3.93
2019-06-07T04:17:09.909Z,3.47
2019-06-07T04:19:43.143Z,3.80
2019-06-07T04:22:10.331Z,3.60
2019-06-07T04:24:42.004Z,3.30
2019-06-07T04:27:10.596Z,3.53
2019-06-07T04:30:02.976Z,3.63
2019-06-07T04:32:10.867Z,3.37
2019-06-07T04:34:42.870Z,4.07
2019-06-07T04:37:11.297Z,3.87
2019-06-07T04:39:45.115Z,3.30
2019-06-07T04:42:14.839Z,4.03
2019-06-07T04:44:45.647Z,4.20
2019-06-07T04:47:17.448Z,3.90
2019-06-07T04:49:48.865Z,4.40
2019-06-07T04:52:18.148Z,4.30
2019-06-07T04:54:47.432Z,4.50
2019-06-07T04:57:16.747Z,4.30
2019-06-07T05:00:22.304Z,4.63
2019-06-07T05:02:17.013Z,4.40
2019-06-07T05:04:46.277Z,4.30
2019-06-07T05:07:15.592Z,4.40
2019-06-07T05:09:45.658Z,4.07
2019-06-07T05:12:14.930Z,4.23
2019-06-07T05:14:44.440Z,4.10
2019-06-07T05:17:13.654Z,4.13
2019-06-07T05:19:44.574Z,3.87
2019-06-07T05:22:14.142Z,3.60
2019-06-07T05:24:43.920Z,3.57
2019-06-07T05:27:13.447Z,3.57
2019-06-07T05:29:44.309Z,4.03
2019-06-07T05:32:14.446Z,3.83
2019-06-07T05:34:47.443Z,3.57
2019-06-07T05:37:14.715Z,3.47
2019-06-07T05:39:46.376Z,3.53
2019-06-07T05:42:15.018Z,3.47
2019-06-07T05:44:45.895Z,3.63
2019-06-07T05:47:15.256Z,3.57
2019-06-07T05:49:47.158Z,4.00
2019-06-07T05:52:16.333Z,2.97
2019-06-07T05:54:47.140Z,3.20
2019-06-07T05:57:16.541Z,3.60
2019-06-07T05:59:47.447Z,3.40
2019-06-07T06:02:22.669Z,2.90
2019-06-07T06:04:49.435Z,3.60
2019-06-07T06:07:19.040Z,3.13
2019-06-07T06:09:48.397Z,3.20
2019-06-07T06:12:34.163Z,2.63
2019-06-07T06:14:48.691Z,3.27
2019-06-07T06:17:18.262Z,3.07
2019-06-07T06:19:52.963Z,2.73
2019-06-07T06:22:18.593Z,2.70
2019-06-07T06:25:28.796Z,2.60
2019-06-07T06:28:02.539Z,3.30
2019-06-07T06:29:52.451Z,2.70
2019-06-07T06:34:55.601Z,2.40
2019-06-07T06:37:23.967Z,2.17
2019-06-07T06:39:53.379Z,2.47
2019-06-07T06:42:22.655Z,2.43
2019-06-07T06:44:54.167Z,2.10
2019-06-07T06:47:22.998Z,2.43
2019-06-07T06:49:54.242Z,2.13
2019-06-07T06:52:23.410Z,2.10
2019-06-07T06:54:59.972Z,2.03
2019-06-07T06:57:23.788Z,2.00
2019-06-07T06:59:53.091Z,2.60
2019-06-07T07:02:22.400Z,2.30
2019-06-07T07:04:53.832Z,2.30
2019-06-07T07:07:23.186Z,2.43
2019-06-07T07:09:58.982Z,2.97
2019-06-07T07:12:23.499Z,3.00
2019-06-07T07:14:56.108Z,2.60
2019-06-07T07:17:47.161Z,2.83
2019-06-07T07:19:55.776Z,3.23
2019-06-07T07:22:25.201Z,2.60
2019-06-07T07:24:54.990Z,2.83
2019-06-07T07:27:24.356Z,3.20
2019-06-07T07:30:34.366Z,3.07
2019-06-07T07:32:24.663Z,2.63
2019-06-07T07:34:59.977Z,2.73
2019-06-07T07:37:24.944Z,3.13
2019-06-07T07:40:01.660Z,3.23
2019-06-07T07:42:25.293Z,3.00
2019-06-07T07:44:56.705Z,3.17
2019-06-07T07:47:25.598Z,3.20
2019-06-07T07:49:58.442Z,2.90
2019-06-07T07:52:25.939Z,2.93
2019-06-07T07:54:56.624Z,3.13
2019-06-07T07:57:26.215Z,3.30
2019-06-07T08:00:17.763Z,2.30
2019-06-07T08:02:26.532Z,2.50
2019-06-07T08:07:26.946Z,2.50
2019-06-07T08:10:00.199Z,2.60
2019-06-07T08:12:27.328Z,2.47
2019-06-07T08:15:00.415Z,2.60
2019-06-07T08:17:27.976Z,3.10
2019-06-07T08:19:57.652Z,2.50
2019-06-07T08:22:27.743Z,3.07
2019-06-07T08:24:59.872Z,3.07
2019-06-07T08:27:28.520Z,3.00
2019-06-07T08:30:15.611Z,3.43
2019-06-07T08:32:28.867Z,3.20
2019-06-07T08:35:05.640Z,2.90
2019-06-07T08:38:13.587Z,3.00
2019-06-07T08:40:01.914Z,3.20
2019-06-07T08:42:37.340Z,3.23
2019-06-07T08:45:05.481Z,3.20
2019-06-07T08:47:33.452Z,3.10
2019-06-07T08:50:07.473Z,3.17
2019-06-07T08:52:44.985Z,2.50
2019-06-07T08:55:15.535Z,2.67
2019-06-07T08:57:44.848Z,2.40
2019-06-07T09:00:43.263Z,2.30
2019-06-07T09:02:49.428Z,2.17
2019-06-07T09:05:21.774Z,2.37
2019-06-07T09:08:12.991Z,2.23
2019-06-07T09:10:22.891Z,1.70
2019-06-07T09:12:54.404Z,1.93
2019-06-07T09:15:24.444Z,1.80
2019-06-07T09:18:34.915Z,1.90
2019-06-07T09:20:36.892Z,1.80
2019-06-07T09:23:07.238Z,1.90
2019-06-07T09:25:52.409Z,2.70
2019-06-07T09:28:14.124Z,2.20
2019-06-07T09:30:40.723Z,2.73
2019-06-07T09:33:10.486Z,2.03
2019-06-07T09:35:40.451Z,2.07
2019-06-07T09:38:23.346Z,2.30
2019-06-07T09:40:41.789Z,2.83
2019-06-07T09:45:44.973Z,2.93
2019-06-07T09:48:23.900Z,3.20
2019-06-07T09:50:45.298Z,2.63
2019-06-07T09:53:22.642Z,2.70
2019-06-07T09:55:45.977Z,2.63
2019-06-07T09:58:50.577Z,3.30
2019-06-07T10:00:46.274Z,3.30
2019-06-07T10:03:21.122Z,2.30
2019-06-07T10:05:46.685Z,2.67
2019-06-07T10:09:26.136Z,2.23
2019-06-07T10:10:47.213Z,2.20
2019-06-07T10:13:16.656Z,2.63
2019-06-07T10:15:45.982Z,2.43
2019-06-07T10:18:15.322Z,2.30
2019-06-07T10:20:44.652Z,2.47
2019-06-07T10:23:13.983Z,3.20
2019-06-07T10:25:43.277Z,2.27
2019-06-07T10:28:12.549Z,2.30
2019-06-07T10:30:41.947Z,2.33
2019-06-07T10:33:11.897Z,2.17
2019-06-07T10:35:41.254Z,1.87
2019-06-07T10:38:10.794Z,2.00
2019-06-07T10:40:40.124Z,2.37
2019-06-07T10:43:13.976Z,2.27
2019-06-07T10:45:40.935Z,1.90
2019-06-07T10:48:11.693Z,2.17
2019-06-07T10:50:41.078Z,2.63
2019-06-07T10:53:10.797Z,2.30
2019-06-07T10:55:40.266Z,2.20
2019-06-07T10:58:11.237Z,2.70
2019-06-07T11:00:40.747Z,2.87
2019-06-07T11:03:10.096Z,2.07
2019-06-07T11:05:39.487Z,2.70
2019-06-07T11:08:10.066Z,3.27
2019-06-07T11:10:39.552Z,2.47
2019-06-07T11:13:10.254Z,2.00
2019-06-07T11:15:39.731Z,2.30
2019-06-07T11:18:10.285Z,1.90
2019-06-07T11:20:39.738Z,1.77
2019-06-07T11:23:10.111Z,2.10
2019-06-07T11:25:39.473Z,1.90
2019-06-07T11:28:08.763Z,1.80
2019-06-07T11:30:38.075Z,1.53
2019-06-07T11:33:08.460Z,1.77
2019-06-07T11:35:37.754Z,1.57
2019-06-07T11:38:08.286Z,1.50
2019-06-07T11:40:38.383Z,1.50
2019-06-07T11:43:09.179Z,1.50
2019-06-07T11:45:38.633Z,1.20
2019-06-07T11:48:09.082Z,1.33
2019-06-07T11:50:38.573Z,1.80
2019-06-07T11:53:08.621Z,1.53
2019-06-07T11:55:38.203Z,1.60
2019-06-07T11:58:12.631Z,1.27
2019-06-07T12:00:38.606Z,1.80
2019-06-07T12:03:09.357Z,1.40
2019-06-07T12:05:38.828Z,1.80
2019-06-07T12:08:08.211Z,2.17
2019-06-07T12:10:42.424Z,1.70
2019-06-07T12:13:08.812Z,1.50
2019-06-07T12:15:38.190Z,1.50
2019-06-07T12:18:09.108Z,1.70
2019-06-07T12:20:38.528Z,1.50
2019-06-07T12:23:07.856Z,1.40
2019-06-07T12:25:37.112Z,1.20
2019-06-07T12:28:06.399Z,1.60
2019-06-07T12:30:35.717Z,1.00
2019-06-07T12:33:05.053Z,1.37
2019-06-07T12:35:34.311Z,1.37
2019-06-07T12:38:03.612Z,1.20
2019-06-07T12:40:32.919Z,1.30
2019-06-07T12:43:02.255Z,1.30
2019-06-07T12:45:44.509Z,1.10
2019-06-07T12:48:02.759Z,1.17
2019-06-07T12:50:42.466Z,1.40
2019-06-07T12:53:03.848Z,1.40
2019-06-07T12:55:33.164Z,1.00
2019-06-07T12:58:02.461Z,1.80
2019-06-07T13:00:31.821Z,1.43
2019-06-07T13:03:01.149Z,1.47
2019-06-07T13:05:30.450Z,1.10
2019-06-07T13:07:59.751Z,1.20
2019-06-07T13:10:29.026Z,1.13
2019-06-07T13:12:58.916Z,0.90
2019-06-07T13:15:28.427Z,1.10
2019-06-07T13:17:57.744Z,1.00
2019-06-07T13:20:28.803Z,1.40
2019-06-07T13:22:58.199Z,1.00
2019-06-07T13:25:45.214Z,0.60
2019-06-07T13:27:58.537Z,1.63
2019-06-07T13:30:28.997Z,0.93
2019-06-07T13:32:58.387Z,1.23
2019-06-07T13:35:29.578Z,2.40
2019-06-07T13:37:59.765Z,1.50
2019-06-07T13:40:29.185Z,2.77
2019-06-07T13:42:58.533Z,2.90
2019-06-07T13:45:28.122Z,1.80
2019-06-07T13:47:57.675Z,1.63
2019-06-07T13:50:28.265Z,1.90
2019-06-07T13:52:58.159Z,2.37
2019-06-07T13:55:28.009Z,1.80
2019-06-07T13:57:57.423Z,1.93
2019-06-07T14:00:26.979Z,1.50
2019-06-07T14:02:56.353Z,1.50
2019-06-07T14:05:27.110Z,1.90
2019-06-07T14:07:56.622Z,3.07
2019-06-07T14:10:27.469Z,2.87
2019-06-07T14:12:56.834Z,3.50
2019-06-07T14:15:26.454Z,4.60
2019-06-07T14:17:55.872Z,1.70
2019-06-07T14:20:30.133Z,1.83
2019-06-07T14:22:56.194Z,1.60
2019-06-07T14:25:25.556Z,2.40
2019-06-07T14:27:54.871Z,3.73
2019-06-07T14:30:25.973Z,1.70
2019-06-07T14:32:55.382Z,1.73
2019-06-07T14:35:24.774Z,3.03
2019-06-07T14:37:54.179Z,1.80
2019-06-07T14:40:25.394Z,1.87
2019-06-07T14:42:54.669Z,1.53
2019-06-07T14:45:24.031Z,3.00
2019-06-07T14:48:00.679Z,2.00
2019-06-07T14:50:30.272Z,2.67
2019-06-07T14:52:59.580Z,1.77
2019-06-07T14:55:28.991Z,2.80
2019-06-07T14:57:58.374Z,3.80
2019-06-07T15:00:40.395Z,2.20
2019-06-07T15:03:09.695Z,3.47
2019-06-07T15:05:40.444Z,14.20
2019-06-07T15:08:09.958Z,2.50
2019-06-07T15:10:39.511Z,2.33
2019-06-07T15:13:08.803Z,2.00
2019-06-07T15:15:38.912Z,1.90
2019-06-07T15:18:08.502Z,1.77
2019-06-07T15:20:38.341Z,1.37
2019-06-07T15:23:07.928Z,1.50
2019-06-07T15:25:37.287Z,1.73
2019-06-07T15:28:06.614Z,1.37
2019-06-07T15:30:36.008Z,1.50
2019-06-07T15:33:05.454Z,1.60
2019-06-07T15:35:35.974Z,1.37
2019-06-07T15:38:06.058Z,1.40
2019-06-07T15:40:35.384Z,1.50
2019-06-07T15:43:04.712Z,1.53
2019-06-07T15:45:33.989Z,1.53
2019-06-07T15:48:03.307Z,1.60
2019-06-07T15:50:32.608Z,1.40
2019-06-07T15:53:02.000Z,1.40
2019-06-07T15:55:36.789Z,1.40
2019-06-07T15:58:02.342Z,1.50
2019-06-07T16:00:33.244Z,1.40
2019-06-07T16:03:02.652Z,1.70
2019-06-07T16:05:32.126Z,1.00
2019-06-07T16:08:01.482Z,1.40
2019-06-07T16:10:30.887Z,1.60
2019-06-07T16:13:01.042Z,1.80
2019-06-07T16:15:30.527Z,1.40
2019-06-07T16:17:59.859Z,1.67
2019-06-07T16:20:29.442Z,1.43
2019-06-07T16:22:58.896Z,1.93
2019-06-07T16:25:28.221Z,1.80
2019-06-07T16:27:57.626Z,1.80
2019-06-07T16:30:27.091Z,1.80
2019-06-07T16:32:56.495Z,1.80
2019-06-07T16:35:26.167Z,1.80
2019-06-07T16:37:55.559Z,1.70
2019-06-07T16:40:25.132Z,1.73
2019-06-07T16:42:54.585Z,2.07
2019-06-07T16:45:24.140Z,1.87
2019-06-07T16:47:53.751Z,1.67
2019-06-07T16:50:23.188Z,1.80
2019-06-07T16:52:52.569Z,1.73
2019-06-07T16:55:22.536Z,2.00
2019-06-07T16:57:51.887Z,1.60
2019-06-07T17:00:22.252Z,1.80
2019-06-07T17:02:51.804Z,1.80
2019-06-07T17:05:21.494Z,1.80
2019-06-07T17:07:51.099Z,1.53
2019-06-07T17:10:20.875Z,1.70
2019-06-07T17:12:50.500Z,1.40
2019-06-07T17:15:20.156Z,1.53
2019-06-07T17:17:50.545Z,1.20
2019-06-07T17:20:20.417Z,1.80
2019-06-07T17:22:49.979Z,1.30
2019-06-07T17:25:19.736Z,1.47
2019-06-07T17:27:50.216Z,1.60
2019-06-07T17:30:21.266Z,1.70
2019-06-07T17:32:58.965Z,1.40
2019-06-07T17:35:22.287Z,1.20
2019-06-07T17:37:51.759Z,1.93
2019-06-07T17:40:22.086Z,1.83
2019-06-07T17:42:51.660Z,2.13
2019-06-07T17:45:21.938Z,1.60
2019-06-07T17:47:52.066Z,1.63
2019-06-07T17:50:21.740Z,2.10
2019-06-07T17:52:52.111Z,1.67
2019-06-07T17:55:21.833Z,1.70
2019-06-07T17:57:52.588Z,1.53
2019-06-07T18:00:33.149Z,1.33
2019-06-07T18:02:54.052Z,1.80
2019-06-07T18:05:23.463Z,1.70
2019-06-07T18:07:53.957Z,2.00
2019-06-07T18:10:35.520Z,1.90
2019-06-07T18:13:05.034Z,1.53
2019-06-07T18:15:40.410Z,1.60
2019-06-07T18:18:10.257Z,1.43
2019-06-07T18:20:39.960Z,1.73
2019-06-07T18:23:11.760Z,2.57
2019-06-07T18:25:41.268Z,2.03
2019-06-07T18:28:10.828Z,2.20
2019-06-07T18:30:40.378Z,1.80
2019-06-07T18:33:09.840Z,1.97
2019-06-07T18:35:39.666Z,1.90
2019-06-07T18:38:10.951Z,2.20
2019-06-07T18:40:40.401Z,2.20
2019-06-07T18:43:10.034Z,1.90
2019-06-07T18:45:40.686Z,2.13
2019-06-07T18:48:10.174Z,1.80
2019-06-07T18:50:39.610Z,1.83
2019-06-07T18:53:09.001Z,2.10
2019-06-07T18:55:38.334Z,2.10
2019-06-07T18:58:07.741Z,2.00
2019-06-07T19:00:38.101Z,1.77
2019-06-07T19:03:08.550Z,2.30
2019-06-07T19:05:37.930Z,2.30
2019-06-07T19:08:07.277Z,2.33
2019-06-07T19:10:36.639Z,2.27
2019-06-07T19:13:05.968Z,2.47
2019-06-07T19:15:35.614Z,2.03
2019-06-07T19:18:05.418Z,3.10
2019-06-07T19:20:34.729Z,1.63
2019-06-07T19:23:04.060Z,2.30
2019-06-07T19:25:33.403Z,2.57
2019-06-07T19:28:02.720Z,3.53
2019-06-07T19:30:32.178Z,2.57
2019-06-07T19:33:01.625Z,2.70
2019-06-07T19:35:30.978Z,2.87
2019-06-07T19:38:00.531Z,2.80
2019-06-07T19:40:29.927Z,3.03
2019-06-07T19:43:00.470Z,2.87
2019-06-07T19:45:31.507Z,3.30
2019-06-07T19:48:01.168Z,2.90
2019-06-07T19:50:30.621Z,3.57
2019-06-07T19:53:01.185Z,2.60
2019-06-07T19:55:30.886Z,3.40
2019-06-07T19:58:01.750Z,2.47
2019-06-07T20:00:31.145Z,2.03
2019-06-07T20:03:00.496Z,1.83
2019-06-07T20:05:33.063Z,2.00
2019-06-07T20:08:02.773Z,2.57
2019-06-07T20:10:32.290Z,2.07
2019-06-07T20:13:02.935Z,2.10
2019-06-07T20:15:36.029Z,2.50
2019-06-07T20:18:05.722Z,2.43
2019-06-07T20:20:38.343Z,1.80
2019-06-07T20:23:09.246Z,2.10
2019-06-07T20:25:38.663Z,2.13
2019-06-07T20:28:09.346Z,1.90
2019-06-07T20:30:39.247Z,2.27
2019-06-07T20:33:08.589Z,2.20
2019-06-07T20:35:37.955Z,2.43
2019-06-07T20:38:07.306Z,2.63
2019-06-07T20:40:36.656Z,2.53
2019-06-07T20:43:06.201Z,2.40
2019-06-07T20:45:35.528Z,3.10
2019-06-07T20:48:06.187Z,2.87
2019-06-07T20:50:35.705Z,2.60
2019-06-07T20:53:05.215Z,2.17
2019-06-07T20:55:34.611Z,2.67
2019-06-07T20:58:05.360Z,1.43
2019-06-07T21:00:34.807Z,3.17
2019-06-07T21:03:05.366Z,2.60
2019-06-07T21:05:34.752Z,3.43
2019-06-07T21:08:08.109Z,3.37
2019-06-07T21:10:35.500Z,3.00
2019-06-07T21:13:05.925Z,2.03
2019-06-07T21:15:47.929Z,3.13
2019-06-07T21:18:12.031Z,3.43
2019-06-07T21:20:37.630Z,3.63
2019-06-07T21:23:06.999Z,3.87
2019-06-07T21:25:36.334Z,4.07
2019-06-07T21:28:05.652Z,4.43
2019-06-07T21:30:35.017Z,4.10
2019-06-07T21:33:05.526Z,3.57
2019-06-07T21:35:34.907Z,3.60
2019-06-07T21:38:05.974Z,4.97
2019-06-07T21:40:35.392Z,3.80
2019-06-07T21:43:04.708Z,3.90
2019-06-07T21:45:34.004Z,4.30
2019-06-07T21:48:05.072Z,4.00
2019-06-07T21:50:34.377Z,3.53
2019-06-07T21:53:04.496Z,3.57
2019-06-07T21:55:33.859Z,3.23
2019-06-07T21:58:03.209Z,2.93
2019-06-07T22:01:14.336Z,2.70
2019-06-07T22:03:43.854Z,1.70
2019-06-07T22:06:13.770Z,1.43
2019-06-07T22:08:43.125Z,2.77
2019-06-07T22:11:12.471Z,2.30
2019-06-07T22:13:41.828Z,2.20
2019-06-07T22:16:23.360Z,2.27
2019-06-07T22:18:42.300Z,2.03
2019-06-07T22:21:12.693Z,3.53
2019-06-07T22:23:43.760Z,2.20
2019-06-07T22:26:13.351Z,2.10
2019-06-07T22:28:42.657Z,3.57
2019-06-07T22:31:12.835Z,2.73
2019-06-07T22:33:42.075Z,1.83
2019-06-07T22:36:11.387Z,3.90
2019-06-07T22:38:40.756Z,1.90
2019-06-07T22:41:12.209Z,1.90
2019-06-07T22:43:40.996Z,3.07
2019-06-07T22:46:10.828Z,2.77
2019-06-07T22:48:40.190Z,1.90
2019-06-07T22:51:11.292Z,1.70
2019-06-07T22:53:44.068Z,2.53
2019-06-07T22:56:33.862Z,3.07
2019-06-07T22:59:03.399Z,2.03
2019-06-07T23:01:32.691Z,2.50
2019-06-07T23:04:02.016Z,2.67
2019-06-07T23:06:31.287Z,3.27
2019-06-07T23:09:00.594Z,3.60
2019-06-07T23:11:29.888Z,3.27
2019-06-07T23:13:59.190Z,2.87
2019-06-07T23:16:28.873Z,1.70
2019-06-07T23:18:58.219Z,2.47
2019-06-07T23:21:27.534Z,3.03
2019-06-07T23:23:56.842Z,3.27
2019-06-07T23:26:26.135Z,2.03
2019-06-07T23:28:55.445Z,2.03
2019-06-07T23:31:24.781Z,2.60
2019-06-07T23:33:54.091Z,3.73
2019-06-07T23:36:23.386Z,3.07
2019-06-07T23:38:52.696Z,2.30
2019-06-07T23:41:22.397Z,2.53
2019-06-07T23:43:51.702Z,3.37
2019-06-07T23:46:21.624Z,2.87
2019-06-07T23:48:51.083Z,2.73
2019-06-07T23:51:20.388Z,3.50
2019-06-07T23:53:49.700Z,3.90
2019-06-07T23:56:20.411Z,3.20
2019-06-07T23:58:49.782Z,3.67
